createdAt,value
2018-01-14T00:00:39.542Z,2.70
2018-01-14T00:03:07.061Z,2.70
2018-01-14T00:05:34.554Z,2.70
2018-01-14T00:08:02.041Z,2.70
2018-01-14T00:10:29.549Z,2.70
2018-01-14T00:12:57.801Z,2.70
2018-01-14T00:15:25.309Z,2.70
2018-01-14T00:17:52.809Z,2.70
2018-01-14T00:20:20.326Z,2.70
2018-01-14T00:22:47.947Z,2.70
2018-01-14T00:25:15.466Z,2.60
2018-01-14T00:27:42.953Z,2.60
2018-01-14T00:30:10.445Z,2.50
2018-01-14T00:32:38.766Z,2.50
2018-01-14T00:35:06.247Z,2.40
2018-01-14T00:37:33.741Z,2.50
2018-01-14T00:40:02.026Z,2.40
2018-01-14T00:42:29.514Z,2.40
2018-01-14T00:44:57.002Z,2.50
2018-01-14T00:47:24.513Z,2.50
2018-01-14T00:49:52.006Z,2.50
2018-01-14T00:52:19.502Z,2.50
2018-01-14T00:54:47.024Z,2.50
2018-01-14T00:57:14.517Z,2.40
2018-01-14T00:59:42.778Z,2.40
2018-01-14T01:02:10.297Z,2.40
2018-01-14T01:04:37.785Z,2.40
2018-01-14T01:07:05.286Z,2.30
2018-01-14T01:09:32.802Z,2.30
2018-01-14T01:12:00.290Z,2.30
2018-01-14T01:14:28.570Z,2.30
2018-01-14T01:16:56.829Z,2.30
2018-01-14T01:19:24.322Z,2.30
2018-01-14T01:21:51.842Z,2.30
2018-01-14T01:24:19.334Z,2.40
2018-01-14T01:26:46.849Z,2.40
2018-01-14T01:29:14.341Z,2.40
2018-01-14T01:31:41.834Z,2.40
2018-01-14T01:34:09.362Z,2.40
2018-01-14T01:36:36.853Z,2.40
2018-01-14T01:39:04.341Z,2.40
2018-01-14T01:41:31.859Z,2.40
2018-01-14T01:43:59.359Z,2.40
2018-01-14T01:46:26.878Z,2.40
2018-01-14T01:48:54.365Z,2.40
2018-01-14T01:51:21.858Z,2.40
2018-01-14T01:53:50.137Z,2.30
2018-01-14T01:56:17.631Z,2.30
2018-01-14T01:58:45.146Z,2.30
2018-01-14T02:01:12.641Z,2.30
2018-01-14T02:03:40.133Z,2.40
2018-01-14T02:06:07.646Z,2.40
2018-01-14T02:08:35.141Z,2.40
2018-01-14T02:11:02.660Z,2.40
2018-01-14T02:13:30.149Z,2.40
2018-01-14T02:15:57.661Z,2.40
2018-01-14T02:18:25.917Z,2.40
2018-01-14T02:20:53.434Z,2.40
2018-01-14T02:23:20.926Z,2.40
2018-01-14T02:25:48.423Z,2.40
2018-01-14T02:28:15.938Z,2.40
2018-01-14T02:30:43.432Z,2.50
2018-01-14T02:33:10.953Z,2.50
2018-01-14T02:35:38.450Z,2.50
2018-01-14T02:38:05.997Z,2.40
2018-01-14T02:40:33.474Z,2.40
2018-01-14T02:43:00.966Z,2.40
2018-01-14T02:45:28.481Z,2.40
2018-01-14T02:47:55.969Z,2.40
2018-01-14T02:50:23.486Z,2.40
2018-01-14T02:52:50.990Z,2.40
2018-01-14T02:55:18.503Z,2.40
2018-01-14T02:57:45.993Z,2.40
2018-01-14T03:00:13.486Z,2.50
2018-01-14T03:02:40.993Z,2.50
2018-01-14T03:05:08.486Z,2.50
2018-01-14T03:07:36.002Z,2.50
2018-01-14T03:10:03.489Z,2.50
2018-01-14T03:12:31.005Z,2.50
2018-01-14T03:14:59.257Z,2.50
2018-01-14T03:17:26.780Z,2.50
2018-01-14T03:19:54.278Z,2.50
2018-01-14T03:22:21.766Z,2.50
2018-01-14T03:24:50.045Z,2.50
2018-01-14T03:27:18.305Z,2.50
2018-01-14T03:29:45.822Z,2.50
2018-01-14T03:32:13.313Z,2.50
2018-01-14T03:34:40.833Z,2.50
2018-01-14T03:37:08.330Z,2.50
2018-01-14T03:39:44.534Z,2.50
2018-01-14T03:42:12.029Z,2.40
2018-01-14T03:44:39.522Z,2.40
2018-01-14T03:47:07.809Z,2.40
2018-01-14T03:49:36.067Z,2.40
2018-01-14T03:52:03.584Z,2.40
2018-01-14T03:54:31.074Z,2.40
2018-01-14T03:56:58.565Z,2.40
2018-01-14T03:59:26.649Z,2.50
2018-01-14T04:01:54.142Z,2.50
2018-01-14T04:04:21.653Z,2.50
2018-01-14T04:06:49.149Z,2.50
2018-01-14T04:09:16.642Z,2.50
2018-01-14T04:11:44.153Z,2.50
2018-01-14T04:14:11.646Z,2.50
2018-01-14T04:16:39.161Z,2.50
2018-01-14T04:19:06.649Z,2.50
2018-01-14T04:21:34.137Z,2.50
2018-01-14T04:24:01.645Z,2.50
2018-01-14T04:26:29.137Z,2.60
2018-01-14T04:28:56.648Z,2.60
2018-01-14T04:31:24.141Z,2.50
2018-01-14T04:33:51.629Z,2.50
2018-01-14T04:36:19.141Z,2.50
2018-01-14T04:38:46.648Z,2.50
2018-01-14T04:41:14.178Z,2.50
2018-01-14T04:43:41.665Z,2.50
2018-01-14T04:46:09.917Z,2.50
2018-01-14T04:48:37.431Z,2.50
2018-01-14T04:51:04.925Z,2.50
2018-01-14T04:53:32.445Z,2.50
2018-01-14T04:55:59.937Z,2.50
2018-01-14T04:58:27.425Z,2.50
2018-01-14T05:00:54.944Z,2.50
2018-01-14T05:03:22.442Z,2.50
2018-01-14T05:05:49.953Z,2.50
2018-01-14T05:08:17.441Z,2.50
2018-01-14T05:10:44.928Z,2.50
2018-01-14T05:13:12.437Z,2.50
2018-01-14T05:15:39.921Z,2.50
2018-01-14T05:18:07.416Z,2.50
2018-01-14T05:20:34.925Z,2.50
2018-01-14T05:23:02.409Z,2.50
2018-01-14T05:25:29.904Z,2.50
2018-01-14T05:27:57.413Z,2.50
2018-01-14T05:30:24.901Z,2.50
2018-01-14T05:32:53.182Z,2.50
2018-01-14T05:35:20.680Z,2.50
2018-01-14T05:37:48.173Z,2.50
2018-01-14T05:40:15.686Z,2.50
2018-01-14T05:42:43.173Z,2.40
2018-01-14T05:45:10.690Z,2.50
2018-01-14T05:47:38.185Z,2.50
2018-01-14T05:50:05.686Z,2.40
2018-01-14T05:52:33.209Z,2.50
2018-01-14T05:55:00.701Z,2.50
2018-01-14T05:57:28.984Z,2.50
2018-01-14T05:59:56.474Z,2.50
2018-01-14T06:02:23.982Z,2.50
2018-01-14T06:04:52.233Z,2.50
2018-01-14T06:07:19.726Z,2.40
2018-01-14T06:09:48.001Z,2.40
2018-01-14T06:12:15.493Z,2.30
2018-01-14T06:14:43.014Z,2.30
2018-01-14T06:17:11.265Z,2.40
2018-01-14T06:19:38.758Z,2.30
2018-01-14T06:22:07.033Z,2.40
2018-01-14T06:24:35.289Z,2.40
2018-01-14T06:27:02.805Z,2.40
2018-01-14T06:29:30.293Z,2.40
2018-01-14T06:31:57.802Z,2.40
2018-01-14T06:34:25.301Z,2.40
2018-01-14T06:36:52.810Z,2.40
2018-01-14T06:39:20.301Z,2.40
2018-01-14T06:41:47.813Z,2.40
2018-01-14T06:44:16.065Z,2.40
2018-01-14T06:46:43.574Z,2.30
2018-01-14T06:49:11.061Z,2.40
2018-01-14T06:51:38.545Z,2.40
2018-01-14T06:54:06.053Z,2.30
2018-01-14T06:56:33.545Z,2.40
2018-01-14T06:59:01.058Z,2.40
2018-01-14T07:01:28.545Z,2.40
2018-01-14T07:03:56.062Z,2.30
2018-01-14T07:06:23.558Z,2.40
2018-01-14T07:08:51.048Z,2.40
2018-01-14T07:11:18.570Z,2.30
2018-01-14T07:13:46.057Z,2.30
2018-01-14T07:16:13.573Z,2.30
2018-01-14T07:18:41.065Z,2.30
2018-01-14T07:21:08.584Z,2.30
2018-01-14T07:23:36.093Z,2.30
2018-01-14T07:26:03.605Z,2.30
2018-01-14T07:28:31.098Z,2.30
2018-01-14T07:30:58.609Z,2.30
2018-01-14T07:33:26.106Z,2.30
2018-01-14T07:35:53.600Z,2.30
2018-01-14T07:38:21.881Z,2.40
2018-01-14T07:40:50.137Z,2.40
2018-01-14T07:43:17.650Z,2.40
2018-01-14T07:45:45.137Z,2.40
2018-01-14T07:48:12.652Z,2.40
2018-01-14T07:50:40.150Z,2.40
2018-01-14T07:53:07.669Z,2.50
2018-01-14T07:55:35.157Z,2.50
2018-01-14T07:58:02.651Z,2.50
2018-01-14T08:00:30.164Z,2.50
2018-01-14T08:02:57.654Z,2.50
2018-01-14T08:05:25.172Z,2.50
2018-01-14T08:07:52.669Z,2.50
2018-01-14T08:10:20.188Z,2.50
2018-01-14T08:12:47.681Z,2.50
2018-01-14T08:15:15.174Z,2.50
2018-01-14T08:17:43.454Z,2.60
2018-01-14T08:20:10.945Z,2.60
2018-01-14T08:22:38.457Z,2.60
2018-01-14T08:25:05.947Z,2.70
2018-01-14T08:27:33.464Z,2.70
2018-01-14T08:30:00.958Z,2.70
2018-01-14T08:32:28.477Z,2.80
2018-01-14T08:34:55.965Z,2.80
2018-01-14T08:37:23.477Z,2.90
2018-01-14T08:39:50.970Z,2.90
2018-01-14T08:42:19.276Z,3.00
2018-01-14T08:44:46.762Z,2.90
2018-01-14T08:47:14.275Z,3.00
2018-01-14T08:49:42.529Z,3.10
2018-01-14T08:52:10.045Z,3.00
2018-01-14T08:54:37.529Z,3.10
2018-01-14T08:57:05.045Z,3.10
2018-01-14T08:59:32.537Z,3.10
2018-01-14T09:02:00.057Z,3.10
2018-01-14T09:04:27.545Z,3.10
2018-01-14T09:06:56.693Z,3.30
2018-01-14T09:09:24.185Z,3.20
2018-01-14T09:11:51.674Z,3.40
2018-01-14T09:14:19.190Z,3.40
2018-01-14T09:16:46.685Z,3.60
2018-01-14T09:19:14.197Z,3.70
2018-01-14T09:21:41.694Z,4.10
2018-01-14T09:24:09.198Z,4.50
2018-01-14T09:26:36.713Z,4.70
2018-01-14T09:29:04.973Z,4.90
2018-01-14T09:31:32.466Z,4.90
2018-01-14T09:33:59.982Z,4.90
2018-01-14T09:36:27.473Z,4.90
2018-01-14T09:38:54.988Z,4.90
2018-01-14T09:41:22.509Z,4.90
2018-01-14T09:43:50.003Z,4.70
2018-01-14T09:46:17.493Z,4.70
2018-01-14T09:48:45.769Z,4.70
2018-01-14T09:51:13.262Z,4.70
2018-01-14T09:53:40.754Z,4.80
2018-01-14T09:56:08.270Z,5.00
2018-01-14T09:58:35.757Z,5.30
2018-01-14T10:01:03.265Z,5.50
2018-01-14T10:03:30.761Z,6.20
2018-01-14T10:05:58.278Z,7.70
2018-01-14T10:08:25.765Z,8.60
2018-01-14T10:10:53.257Z,8.80
2018-01-14T10:13:20.773Z,8.90
2018-01-14T10:15:48.262Z,9.10
2018-01-14T10:18:16.525Z,10.30
2018-01-14T10:20:44.042Z,10.30
2018-01-14T10:23:11.538Z,11.00
2018-01-14T10:25:39.058Z,11.90
2018-01-14T10:28:06.553Z,12.50
2018-01-14T10:30:34.050Z,13.40
2018-01-14T10:33:01.569Z,13.90
2018-01-14T10:35:29.066Z,14.60
2018-01-14T10:37:56.565Z,14.20
2018-01-14T10:40:24.085Z,14.40
2018-01-14T10:42:51.577Z,15.00
2018-01-14T10:45:19.090Z,15.20
2018-01-14T10:47:46.581Z,15.30
2018-01-14T10:50:14.073Z,15.20
2018-01-14T10:52:41.605Z,15.20
2018-01-14T10:55:09.102Z,14.70
2018-01-14T10:57:36.598Z,14.00
2018-01-14T11:00:04.113Z,12.80
2018-01-14T11:02:31.601Z,11.70
2018-01-14T11:04:59.122Z,10.90
2018-01-14T11:07:26.622Z,10.40
2018-01-14T11:09:54.122Z,10.00
2018-01-14T11:12:21.701Z,10.10
2018-01-14T11:14:49.158Z,9.70
2018-01-14T11:17:16.674Z,9.40
2018-01-14T11:19:44.161Z,9.10
2018-01-14T11:22:11.662Z,9.50
2018-01-14T11:24:39.174Z,9.10
2018-01-14T11:27:06.669Z,9.00
2018-01-14T11:29:40.984Z,8.80
2018-01-14T11:32:09.250Z,8.50
2018-01-14T11:34:37.510Z,8.90
2018-01-14T11:37:05.029Z,8.90
2018-01-14T11:39:32.517Z,9.00
2018-01-14T11:42:00.039Z,8.60
2018-01-14T11:44:27.533Z,8.40
2018-01-14T11:46:55.045Z,8.50
2018-01-14T11:49:22.533Z,8.70
2018-01-14T11:51:50.053Z,9.10
2018-01-14T11:54:18.319Z,9.20
2018-01-14T11:56:45.834Z,9.20
2018-01-14T11:59:13.329Z,9.60
2018-01-14T12:01:41.621Z,9.80
2018-01-14T12:04:09.125Z,9.80
2018-01-14T12:06:36.617Z,10.40
2018-01-14T12:09:04.129Z,11.00
2018-01-14T12:11:31.621Z,11.60
2018-01-14T12:13:59.142Z,12.00
2018-01-14T12:16:26.633Z,12.00
2018-01-14T12:18:54.130Z,12.20
2018-01-14T12:21:21.653Z,11.90
2018-01-14T12:23:49.149Z,11.60
2018-01-14T12:26:17.409Z,11.60
2018-01-14T12:28:45.693Z,11.30
2018-01-14T12:31:13.953Z,11.10
2018-01-14T12:36:42.899Z,10.90
2018-01-14T12:39:10.413Z,10.70
2018-01-14T12:41:37.909Z,10.20
2018-01-14T12:44:05.397Z,9.70
2018-01-14T12:46:32.913Z,9.40
2018-01-14T12:49:01.169Z,9.30
2018-01-14T12:51:28.657Z,9.30
2018-01-14T12:53:56.170Z,9.30
2018-01-14T12:56:23.668Z,9.30
2018-01-14T12:58:51.949Z,9.30
2018-01-14T13:01:20.201Z,8.80
2018-01-14T13:03:47.718Z,8.80
2018-01-14T13:06:15.211Z,8.40
2018-01-14T13:08:42.697Z,8.20
2018-01-14T13:11:10.978Z,8.00
2018-01-14T13:13:38.474Z,8.00
2018-01-14T13:16:05.966Z,7.60
2018-01-14T13:18:33.482Z,7.60
2018-01-14T13:21:00.968Z,7.80
2018-01-14T13:23:28.458Z,7.80
2018-01-14T13:25:55.977Z,7.90
2018-01-14T13:28:23.474Z,8.20
2018-01-14T13:30:51.730Z,8.20
2018-01-14T13:33:19.238Z,8.20
2018-01-14T13:35:46.730Z,8.10
2018-01-14T13:38:14.241Z,8.00
2018-01-14T13:40:41.731Z,7.90
2018-01-14T13:43:09.216Z,8.20
2018-01-14T13:45:36.722Z,8.40
2018-01-14T13:48:04.213Z,8.20
2018-01-14T13:50:31.725Z,8.00
2018-01-14T13:52:59.986Z,8.00
2018-01-14T13:55:28.262Z,8.00
2018-01-14T13:57:55.769Z,7.90
2018-01-14T14:00:23.290Z,8.10
2018-01-14T14:02:51.542Z,8.10
2018-01-14T14:05:19.070Z,8.10
2018-01-14T14:07:46.557Z,8.20
2018-01-14T14:10:14.041Z,8.40
2018-01-14T14:12:42.318Z,8.40
2018-01-14T14:15:10.578Z,8.30
2018-01-14T14:17:38.853Z,8.20
2018-01-14T14:20:06.345Z,8.20
2018-01-14T14:22:33.829Z,8.20
2018-01-14T14:25:01.337Z,8.10
2018-01-14T14:27:29.589Z,7.90
2018-01-14T14:29:57.077Z,7.90
2018-01-14T14:32:24.585Z,7.80
2018-01-14T14:34:52.074Z,7.70
2018-01-14T14:37:19.590Z,7.50
2018-01-14T14:39:47.082Z,7.40
2018-01-14T14:42:14.566Z,7.30
2018-01-14T14:44:42.841Z,7.30
2018-01-14T14:47:10.329Z,7.30
2018-01-14T14:49:37.841Z,7.30
2018-01-14T14:52:05.336Z,7.30
2018-01-14T14:54:32.825Z,7.30
2018-01-14T14:57:00.334Z,7.20
2018-01-14T14:59:28.590Z,7.10
2018-01-14T15:01:56.101Z,7.00
2018-01-14T15:04:23.588Z,7.00
2018-01-14T15:06:51.069Z,6.80
2018-01-14T15:09:18.578Z,6.80
2018-01-14T15:11:46.066Z,6.70
2018-01-14T15:14:13.553Z,6.50
2018-01-14T15:16:41.058Z,6.40
2018-01-14T15:19:08.541Z,6.40
2018-01-14T15:21:36.050Z,6.20
2018-01-14T15:24:03.533Z,6.20
2018-01-14T15:26:31.045Z,6.00
2018-01-14T15:28:58.528Z,5.90
2018-01-14T15:31:26.038Z,5.80
2018-01-14T15:33:53.526Z,5.80
2018-01-14T15:36:21.777Z,5.60
2018-01-14T15:38:49.281Z,5.60
2018-01-14T15:41:16.764Z,5.60
2018-01-14T15:43:44.250Z,5.50
2018-01-14T15:46:11.773Z,5.40
2018-01-14T15:48:39.256Z,5.30
2018-01-14T15:51:06.741Z,5.20
2018-01-14T15:53:35.020Z,5.10
2018-01-14T15:56:03.273Z,5.00
2018-01-14T15:58:30.765Z,5.00
2018-01-14T16:00:58.282Z,5.00
2018-01-14T16:03:25.778Z,5.00
2018-01-14T16:05:54.055Z,5.00
2018-01-14T16:08:22.306Z,5.00
2018-01-14T16:10:49.797Z,5.00
2018-01-14T16:13:17.305Z,5.00
2018-01-14T16:15:45.553Z,4.90
2018-01-14T16:18:13.037Z,4.90
2018-01-14T16:20:40.546Z,5.00
2018-01-14T16:23:08.029Z,4.90
2018-01-14T16:25:35.513Z,4.90
2018-01-14T16:28:03.026Z,4.90
2018-01-14T16:30:30.518Z,4.90
2018-01-14T16:32:58.029Z,4.80
2018-01-14T16:35:26.281Z,4.70
2018-01-14T16:37:53.789Z,4.70
2018-01-14T16:40:21.273Z,4.70
2018-01-14T16:42:48.758Z,4.60
2018-01-14T16:45:16.278Z,4.60
2018-01-14T16:47:43.765Z,4.50
2018-01-14T16:50:11.258Z,4.40
2018-01-14T16:52:38.766Z,4.40
2018-01-14T16:55:06.250Z,4.30
2018-01-14T16:57:33.733Z,4.20
2018-01-14T17:00:01.241Z,4.10
2018-01-14T17:02:28.729Z,4.10
2018-01-14T17:04:57.005Z,4.00
2018-01-14T17:07:25.257Z,3.90
2018-01-14T17:09:52.747Z,3.90
2018-01-14T17:12:21.025Z,3.80
2018-01-14T17:14:48.538Z,3.80
2018-01-14T17:17:16.052Z,3.70
2018-01-14T17:19:43.537Z,3.70
2018-01-14T17:22:11.050Z,3.70
2018-01-14T17:24:39.301Z,3.60
2018-01-14T17:27:06.785Z,3.60
2018-01-14T17:29:34.289Z,3.70
2018-01-14T17:32:01.773Z,3.60
2018-01-14T17:34:29.281Z,3.70
2018-01-14T17:36:56.773Z,3.70
2018-01-14T17:39:24.265Z,3.70
2018-01-14T17:41:51.774Z,3.70
2018-01-14T17:44:19.270Z,3.70
2018-01-14T17:46:47.554Z,3.60
2018-01-14T17:49:15.046Z,3.60
2018-01-14T17:51:42.538Z,3.60
2018-01-14T17:54:10.050Z,3.60
2018-01-14T17:56:38.314Z,3.50
2018-01-14T17:59:05.821Z,3.50
2018-01-14T18:01:33.314Z,3.50
2018-01-14T18:04:00.834Z,3.40
2018-01-14T18:06:28.326Z,3.40
2018-01-14T18:08:55.813Z,3.30
2018-01-14T18:11:24.096Z,3.20
2018-01-14T18:13:52.354Z,3.20
2018-01-14T18:16:19.861Z,3.10
2018-01-14T18:18:47.358Z,3.10
2018-01-14T18:21:14.845Z,3.10
2018-01-14T18:23:43.126Z,3.10
2018-01-14T18:26:11.378Z,3.10
2018-01-14T18:28:38.885Z,3.10
2018-01-14T18:31:06.376Z,3.10
2018-01-14T18:33:33.861Z,3.00
2018-01-14T18:36:02.137Z,2.90
2018-01-14T18:38:30.391Z,2.90
2018-01-14T18:40:57.910Z,2.80
2018-01-14T18:43:25.401Z,2.80
2018-01-14T18:46:13.814Z,2.80
2018-01-14T18:48:41.306Z,2.70
2018-01-14T18:51:09.565Z,2.60
2018-01-14T18:53:37.128Z,2.60
2018-01-14T18:56:04.625Z,2.60
2018-01-14T18:58:32.146Z,2.50
2018-01-14T19:00:59.671Z,2.50
2018-01-14T19:03:27.149Z,2.50
2018-01-14T19:05:54.666Z,2.40
2018-01-14T19:08:22.154Z,2.40
2018-01-14T19:10:49.665Z,2.40
2018-01-14T19:13:17.152Z,2.40
2018-01-14T19:15:44.650Z,2.40
2018-01-14T19:18:12.161Z,2.30
2018-01-14T19:20:40.422Z,2.30
2018-01-14T19:23:07.934Z,2.30
2018-01-14T19:25:35.425Z,2.30
2018-01-14T19:28:02.913Z,2.20
2018-01-14T19:30:30.433Z,2.30
2018-01-14T19:32:57.926Z,2.20
2018-01-14T19:35:26.201Z,2.20
2018-01-14T19:37:54.449Z,2.20
2018-01-14T19:40:21.941Z,2.20
2018-01-14T19:42:50.239Z,2.20
2018-01-14T19:45:17.770Z,2.20
2018-01-14T19:47:46.989Z,2.00
2018-01-14T19:50:14.682Z,2.00
2018-01-14T19:52:42.187Z,2.00
2018-01-14T19:55:09.697Z,2.00
2018-01-14T19:57:37.185Z,2.00
2018-01-14T20:00:04.697Z,1.90
2018-01-14T20:02:32.185Z,1.90
2018-01-14T20:04:59.669Z,1.90
2018-01-14T20:07:27.177Z,1.90
2018-01-14T20:09:54.674Z,1.90
2018-01-14T20:12:22.195Z,1.90
2018-01-14T20:14:49.686Z,1.90
2018-01-14T20:17:17.173Z,1.80
2018-01-14T20:19:45.457Z,1.70
2018-01-14T20:22:13.721Z,1.70
2018-01-14T20:24:41.243Z,1.70
2018-01-14T20:27:08.738Z,1.60
2018-01-14T20:29:36.225Z,1.50
2018-01-14T20:32:03.747Z,1.60
2018-01-14T20:34:31.234Z,1.50
2018-01-14T20:36:58.730Z,1.50
2018-01-14T20:39:26.690Z,1.40
2018-01-14T20:41:54.197Z,1.40
2018-01-14T20:44:27.505Z,1.40
2018-01-14T20:46:55.761Z,1.30
2018-01-14T20:49:23.249Z,1.30
2018-01-14T20:51:50.773Z,1.30
2018-01-14T20:54:18.265Z,1.30
2018-01-14T20:56:45.752Z,1.30
2018-01-14T20:59:13.261Z,1.20
2018-01-14T21:01:41.518Z,1.20
2018-01-14T21:04:09.041Z,1.10
2018-01-14T21:06:36.529Z,1.20
2018-01-14T21:09:04.061Z,1.10
2018-01-14T21:11:31.549Z,1.10
2018-01-14T21:13:59.038Z,1.10
2018-01-14T21:16:27.332Z,1.10
2018-01-14T21:18:54.858Z,1.10
2018-01-14T21:21:22.362Z,1.10
2018-01-14T21:23:49.858Z,1.10
2018-01-14T21:26:17.350Z,1.10
2018-01-14T21:28:45.624Z,1.00
2018-01-14T21:31:13.886Z,1.00
2018-01-14T21:33:41.382Z,1.00
2018-01-14T21:36:08.903Z,0.90
2018-01-14T21:38:37.178Z,0.90
2018-01-14T21:41:04.674Z,0.90
2018-01-14T21:43:32.181Z,0.90
2018-01-14T21:45:59.674Z,1.00
2018-01-14T21:48:27.929Z,0.90
2018-01-14T21:50:55.441Z,0.90
2018-01-14T21:53:22.929Z,0.80
2018-01-14T21:55:50.446Z,0.80
2018-01-14T21:58:17.941Z,0.80
2018-01-14T22:00:45.425Z,0.80
2018-01-14T22:03:13.709Z,0.80
2018-01-14T22:05:41.966Z,0.80
2018-01-14T22:08:09.486Z,0.80
2018-01-14T22:10:36.981Z,0.80
2018-01-14T22:13:04.473Z,0.80
2018-01-14T22:15:31.993Z,0.80
2018-01-14T22:17:59.486Z,0.80
2018-01-14T22:20:27.741Z,0.80
2018-01-14T22:22:55.258Z,0.80
2018-01-14T22:25:22.774Z,0.80
2018-01-14T22:27:51.025Z,0.80
2018-01-14T22:30:18.513Z,0.80
2018-01-14T22:32:46.797Z,0.70
2018-01-14T22:35:14.288Z,0.70
2018-01-14T22:37:41.810Z,0.70
2018-01-14T22:40:09.309Z,0.70
2018-01-14T22:42:36.802Z,0.70
2018-01-14T22:45:04.313Z,0.70
2018-01-14T22:47:31.802Z,0.70
2018-01-14T22:49:59.294Z,0.70
2018-01-14T22:52:27.569Z,0.60
2018-01-14T22:54:55.820Z,0.60
2018-01-14T22:57:23.333Z,0.60
2018-01-14T22:59:50.822Z,0.60
2018-01-14T23:02:18.337Z,0.60
2018-01-14T23:04:45.833Z,0.50
2018-01-14T23:07:13.355Z,0.60
2018-01-14T23:09:40.852Z,0.50
2018-01-14T23:12:08.377Z,0.50
2018-01-14T23:14:35.878Z,0.50
2018-01-14T23:17:03.366Z,0.60
2018-01-14T23:19:47.434Z,0.50
2018-01-14T23:22:14.921Z,0.50
2018-01-14T23:24:42.429Z,0.50
2018-01-14T23:27:10.680Z,0.50
2018-01-14T23:29:38.198Z,0.50
2018-01-14T23:32:05.685Z,0.50
2018-01-14T23:34:33.175Z,0.40
2018-01-14T23:37:01.455Z,0.40
2018-01-14T23:39:29.718Z,0.30
2018-01-14T23:41:57.997Z,0.30
2018-01-14T23:44:26.253Z,0.30
2018-01-14T23:46:53.741Z,0.30
2018-01-14T23:49:22.017Z,0.30
2018-01-14T23:51:50.284Z,0.20
2018-01-14T23:54:18.561Z,0.20
2018-01-14T23:56:46.813Z,0.20
2018-01-14T23:59:14.301Z,0.20
